Time;durP1;ratioP1;P1;durP2;ratioP2;P2;SDS_P1;SDS_P2;PMS_P1;PMS_P2;Temp;Humidity;BMP_temperature;BMP_pressure;BME280_temperature;BME280_humidity;BME280_pressure;Samples;Min_cycle;Max_cycle;Signal;HPM_P1;HPM_P2
2023/01/16 00:01:32;;;;;;;2.73;1.30;;;4.90;99.90;;;-141.84;70.58;19153.38;5052246;28;20227;-63
2023/01/16 00:04:00;;;;;;;1.73;1.00;;;4.90;99.90;;;-141.84;71.36;19151.34;5052433;28;20215;-61
2023/01/16 00:06:28;;;;;;;2.80;1.10;;;4.80;99.90;;;-141.84;71.28;19167.59;5051535;28;20308;-62
2023/01/16 00:08:56;;;;;;;2.73;0.90;;;4.80;99.90;;;-141.84;71.16;19173.69;5051764;28;20231;-61
2023/01/16 00:11:26;;;;;;;1.90;1.00;;;4.90;99.90;;;-141.84;71.51;19147.28;5051926;28;20232;-61
2023/01/16 00:13:55;;;;;;;1.70;1.10;;;4.90;99.90;;;-141.84;70.48;19204.19;5051910;28;20221;-61
2023/01/16 00:16:23;;;;;;;1.53;0.93;;;4.90;99.90;;;-141.84;70.08;19198.09;5051868;28;20236;-63
2023/01/16 00:18:51;;;;;;;2.00;1.00;;;5.10;99.90;;;-141.84;71.07;19187.91;5052477;28;20308;-60
2023/01/16 00:21:20;;;;;;;2.03;1.10;;;4.90;99.90;;;-141.84;71.30;19167.59;5051278;28;20748;-61
2023/01/16 00:23:48;;;;;;;1.67;1.17;;;5.00;99.90;;;-141.84;71.07;19185.88;5051704;28;20229;-72
2023/01/16 00:26:17;;;;;;;2.47;0.90;;;4.90;99.90;;;-141.84;70.06;19194.03;5051555;28;20236;-71
2023/01/16 00:28:46;;;;;;;2.67;1.00;;;5.10;99.90;;;-141.84;70.15;19214.34;5051630;28;20231;-72
2023/01/16 00:31:14;;;;;;;1.50;1.00;;;5.20;99.90;;;-141.84;70.19;19202.16;5051657;28;20224;-72
2023/01/16 00:33:43;;;;;;;1.93;1.00;;;5.10;99.90;;;-141.84;70.59;19159.47;5051233;28;20251;-72
2023/01/16 00:36:12;;;;;;;2.00;1.10;;;5.10;99.90;;;-141.84;70.20;19173.69;5050960;28;20228;-71
2023/01/16 00:38:40;;;;;;;2.60;0.97;;;5.10;99.90;;;-141.84;70.32;19194.03;5051689;28;20224;-71
2023/01/16 00:41:08;;;;;;;2.67;1.10;;;5.10;99.90;;;-141.84;70.78;19157.44;5051204;28;20223;-70
2023/01/16 00:43:37;;;;;;;3.27;1.10;;;5.00;99.90;;;-141.84;69.83;19206.22;5051230;28;20232;-71
2023/01/16 00:46:07;;;;;;;1.90;1.30;;;5.10;99.90;;;-141.84;70.05;19181.81;5051107;28;20228;-71
2023/01/16 00:48:35;;;;;;;4.90;1.30;;;5.10;99.90;;;-141.84;70.38;19183.84;5051660;28;20842;-71
2023/01/16 00:51:03;;;;;;;3.03;1.33;;;5.10;99.90;;;-141.84;69.90;19189.97;5050895;28;20228;-71
2023/01/16 00:53:31;;;;;;;1.20;1.10;;;5.20;99.90;;;-141.84;70.08;19196.06;5051195;28;20236;-72
2023/01/16 00:56:00;;;;;;;1.60;0.93;;;5.10;99.90;;;-141.84;70.01;19192.00;5050835;28;20275;-71
2023/01/16 00:58:28;;;;;;;2.50;1.20;;;5.20;99.90;;;-141.84;68.93;19210.28;5050995;28;20229;-70
2023/01/16 01:00:56;;;;;;;1.40;1.07;;;5.20;99.90;;;-141.84;69.21;19200.13;5051424;28;20215;-71
2023/01/16 01:03:27;;;;;;;1.53;1.13;;;5.20;99.90;;;-141.84;68.54;19232.63;5050964;28;20694;-70
2023/01/16 01:05:55;;;;;;;2.90;1.13;;;5.20;99.90;;;-141.84;68.73;19198.09;5050426;28;20236;-71
2023/01/16 01:08:24;;;;;;;4.47;1.23;;;5.30;99.90;;;-141.84;68.78;19204.19;5050784;28;20247;-71
2023/01/16 01:10:52;;;;;;;2.10;1.20;;;5.30;99.90;;;-141.84;68.36;19212.31;5051005;28;20235;-71
2023/01/16 01:13:20;;;;;;;1.97;1.10;;;5.30;99.90;;;-141.84;68.64;19240.75;5050778;28;20219;-72
2023/01/16 01:15:48;;;;;;;4.33;1.50;;;5.30;99.90;;;-141.84;67.36;19224.50;5051241;28;20209;-72
2023/01/16 01:18:16;;;;;;;2.07;1.23;;;5.40;99.90;;;-141.84;68.22;19242.78;5050985;28;20589;-71
2023/01/16 01:20:47;;;;;;;1.97;1.30;;;5.40;99.90;;;-141.84;68.31;19183.84;5050373;28;20236;-71
2023/01/16 01:23:15;;;;;;;2.03;1.10;;;5.40;99.90;;;-141.84;66.95;19263.09;5050788;28;20236;-70
2023/01/16 01:25:44;;;;;;;2.17;1.20;;;5.40;99.90;;;-141.84;67.61;19226.53;5050187;28;20232;-70
2023/01/16 01:28:12;;;;;;;1.53;1.03;;;5.40;99.90;;;-141.84;67.87;19214.34;5050583;28;20212;-71
2023/01/16 01:30:40;;;;;;;2.77;1.20;;;5.40;99.90;;;-141.84;67.88;19261.06;5050529;28;20543;-71
2023/01/16 01:33:09;;;;;;;3.40;1.10;;;5.30;99.90;;;-141.84;66.89;19220.44;5050317;28;20233;-71
2023/01/16 01:35:38;;;;;;;2.30;1.17;;;5.40;99.90;;;-141.84;66.91;19224.50;5049569;28;20235;-73
2023/01/16 01:38:07;;;;;;;1.70;1.23;;;5.40;99.90;;;-141.84;66.89;19246.84;5050309;28;20233;-72
2023/01/16 01:40:35;;;;;;;1.83;1.00;;;5.40;99.90;;;-141.84;67.63;19210.28;5050122;28;20221;-71
2023/01/16 01:43:03;;;;;;;3.43;1.37;;;5.30;99.90;;;-141.84;67.53;19226.53;5050218;28;20221;-72
2023/01/16 01:45:32;;;;;;;2.87;1.07;;;5.30;99.90;;;-141.84;68.66;19218.41;5050387;28;20204;-71
2023/01/16 01:48:09;;;;;;;1.43;1.00;;;5.20;99.90;;;-141.84;68.10;19206.22;5050051;28;20263;-71
2023/01/16 01:50:46;;;;;;;2.70;1.17;;;5.30;99.90;;;-141.84;67.64;19210.28;5049563;28;20700;-72
2023/01/16 01:53:22;;;;;;;2.43;1.17;;;5.30;99.90;;;-141.84;67.70;19218.41;5050065;28;20235;-71
2023/01/16 01:55:52;;;;;;;1.87;1.20;;;5.20;99.90;;;-141.84;68.38;19198.09;5049679;28;20234;-71
2023/01/16 01:58:25;;;;;;;1.60;1.10;;;5.10;99.90;;;-141.84;69.42;19192.00;5050189;28;20189;-71
2023/01/16 02:00:58;;;;;;;1.77;1.20;;;5.00;99.90;;;-141.84;69.43;19183.84;5049932;28;20199;-71
2023/01/16 02:03:35;;;;;;;2.77;1.10;;;4.90;99.90;;;-141.84;70.20;19143.22;5050079;28;20557;-71
2023/01/16 02:06:15;;;;;;;3.00;1.23;;;4.80;99.90;;;-141.84;68.88;19185.88;5049096;28;20226;-71
2023/01/16 02:08:44;;;;;;;1.93;1.20;;;4.80;99.90;;;-141.84;68.89;19181.81;5049538;28;20223;-72
2023/01/16 02:11:26;;;;;;;2.87;0.90;;;4.80;99.90;;;-141.84;69.68;19163.53;5049538;28;20243;-71
2023/01/16 02:13:57;;;;;;;2.77;0.90;;;4.70;99.90;;;-141.84;69.87;19167.59;5049641;28;20232;-71
2023/01/16 02:19:25;;;;;;;1.70;1.30;;;4.60;99.90;;;-141.84;70.17;19143.22;5049668;28;20479;-71
2023/01/16 02:22:33;;;;;;;2.37;1.20;;;4.50;99.90;;;-141.84;69.81;19171.66;5049595;28;20410;-70
2023/01/16 02:25:52;;;;;;;3.63;1.00;;;4.60;99.90;;;-141.84;69.88;19159.47;5049682;28;20565;-71
2023/01/16 02:29:02;;;;;;;3.30;1.00;;;4.50;99.90;;;-141.84;70.01;19131.03;4993160;28;20226;-74
2023/01/16 02:31:44;;;;;;;2.57;1.00;;;4.40;99.90;;;-141.84;70.59;19135.09;5049505;28;20219;-71
2023/01/16 02:34:35;;;;;;;3.10;1.20;;;4.40;99.90;;;-141.84;70.43;19110.72;5049349;28;20280;-72
2023/01/16 02:37:20;;;;;;;2.87;1.30;;;4.40;99.90;;;-141.84;72.01;19135.09;5049317;28;20203;-71
2023/01/16 02:40:03;;;;;;;1.13;0.90;;;4.20;99.90;;;-141.84;72.28;19122.91;5049892;28;20189;-71
2023/01/16 02:42:44;;;;;;;1.63;1.10;;;4.10;99.90;;;-141.84;71.31;19116.81;5049480;28;20205;-71
2023/01/16 02:45:23;;;;;;;1.70;1.13;;;4.10;99.90;;;-141.84;70.92;19112.75;5049201;28;20241;-71
2023/01/16 02:48:04;;;;;;;2.13;1.20;;;4.10;99.90;;;-141.84;71.86;19114.78;5049133;28;20237;-71
2023/01/16 02:50:43;;;;;;;1.87;1.00;;;4.10;99.90;;;-141.84;70.97;19129.00;5048883;28;20227;-71
2023/01/16 02:53:20;;;;;;;2.40;1.20;;;4.10;99.90;;;-141.84;71.43;19131.03;5049155;28;20227;-72
2023/01/16 02:55:57;;;;;;;2.17;1.10;;;4.10;99.90;;;-141.84;70.60;19102.56;5048768;28;20232;-71
2023/01/16 02:58:28;;;;;;;2.63;1.03;;;4.10;99.90;;;-141.84;71.43;19118.84;5051779;28;20225;-72
2023/01/16 03:00:59;;;;;;;3.43;0.97;;;4.10;99.90;;;-141.84;72.08;19129.00;5053804;28;20183;-73
2023/01/16 03:03:43;;;;;;;2.63;1.20;;;4.10;99.90;;;-141.84;72.73;19080.22;5053276;28;20251;-70
2023/01/16 03:06:31;;;;;;;3.50;1.30;;;3.90;99.90;;;-141.84;72.85;19088.34;5052712;28;20230;-71
2023/01/16 03:09:13;;;;;;;1.93;1.13;;;;;;;-141.84;72.18;19094.44;5052792;28;20242;-72
2023/01/16 03:11:48;;;;;;;1.40;0.93;;;;;;;-141.84;72.77;19106.66;5053134;28;20606;-69
2023/01/16 03:14:34;;;;;;;1.20;1.10;;;;;;;-141.84;72.46;19080.22;5053006;28;20233;-70
2023/01/16 03:17:14;;;;;;;1.60;0.80;;;;;;;-141.84;73.25;19068.03;5052914;28;20220;-72
2023/01/16 03:19:57;;;;;;;1.80;1.00;;;;;;;-141.84;73.50;19090.38;5052821;28;20230;-71
2023/01/16 03:22:35;;;;;;;1.50;1.00;;;;;;;-141.84;73.51;19094.44;5052532;28;20234;-72
2023/01/16 03:25:18;;;;;;;2.07;1.30;;;;;;;-141.84;72.93;19088.34;5053088;28;20189;-72
2023/01/16 03:27:57;;;;;;;1.70;0.90;;;;;;;-141.84;72.70;19086.31;5053038;28;20212;-71
2023/01/16 03:30:32;;;;;;;2.77;0.90;;;;;;;-141.84;72.64;19098.50;5052506;28;20233;-72
2023/01/16 03:33:07;;;;;;;2.03;0.80;;;;;;;-141.84;71.38;19108.69;5052402;28;20323;-70
2023/01/16 03:35:43;;;;;;;2.33;1.00;;;;;;;-141.84;71.68;19112.75;5052220;28;20658;-71
2023/01/16 03:38:15;;;;;;;3.83;1.07;;;;;;;-141.84;71.55;19094.44;5052446;28;20223;-71
2023/01/16 03:40:47;;;;;;;1.83;0.90;;;;;;;-141.84;70.96;19098.50;5052642;28;20232;-73
2023/01/16 03:43:21;;;;;;;3.43;0.93;;;;;;;-141.84;71.26;19114.78;5052566;28;20187;-72
2023/01/16 03:45:56;;;;;;;2.43;0.97;;;;;;;-141.84;70.97;19139.16;5052840;28;20196;-71
2023/01/16 03:48:30;;;;;;;2.17;1.00;;;;;;;-141.84;70.94;19110.72;5051916;28;20687;-71
2023/01/16 03:51:05;;;;;;;2.00;1.03;;;;;;;-141.84;70.94;19133.06;5051936;28;20244;-72
2023/01/16 03:53:39;;;;;;;2.60;1.30;;;;;;;-141.84;70.51;19120.88;5052220;28;20229;-72
2023/01/16 03:56:15;;;;;;;2.93;1.20;;;;;;;-141.84;70.22;19118.84;5051829;28;20711;-71
2023/01/16 03:58:53;;;;;;;6.10;1.57;;;;;;;-141.84;69.46;19157.44;5051925;28;20222;-72
2023/01/16 04:01:27;;;;;;;2.10;0.90;;;;;;;-141.84;69.49;19110.72;5052089;28;20233;-72
2023/01/16 04:04:03;;;;;;;1.43;0.87;;;;;;;-141.84;69.27;19122.91;5052351;28;20637;-69
2023/01/16 04:06:37;;;;;;;3.73;1.07;;;;;;;-141.84;68.86;19135.09;5051976;28;20411;-70
2023/01/16 04:09:12;;;;;;;4.10;1.10;;;;;;;-141.84;68.66;19155.41;5051298;28;20232;-70
2023/01/16 04:11:42;;;;;;;2.43;0.97;;;;;;;-141.84;69.17;19145.25;5051946;28;20280;-71
2023/01/16 04:14:14;;;;;;;2.43;1.00;;;;;;;-141.84;69.04;19147.28;5051797;28;20227;-71
2023/01/16 04:16:43;;;;;;;1.70;1.07;;;;;;;-141.84;69.59;19114.78;5051901;28;20236;-71
2023/01/16 04:19:15;;;;;;;2.10;0.80;;;;;;;-141.84;68.40;19167.59;5052077;28;20201;-70
2023/01/16 04:21:48;;;;;;;1.20;1.00;;;;;;;-141.84;69.18;19112.75;5052384;28;20199;-71
2023/01/16 04:24:17;;;;;;;2.17;0.90;;;;;;;-141.84;69.60;19124.94;5051586;28;20223;-69
2023/01/16 04:26:46;;;;;;;3.27;1.10;;;;;;;-141.84;69.60;19133.06;5051591;28;20237;-73
2023/01/16 04:29:14;;;;;;;2.50;1.70;;;;;;;-141.84;69.61;19120.88;5051588;28;20609;-72
2023/01/16 04:31:43;;;;;;;2.60;1.10;;;;;;;-141.84;69.88;19153.38;5051662;28;20234;-73
2023/01/16 04:34:11;;;;;;;3.03;1.20;;;;;;;-141.84;69.99;19143.22;5051679;28;20253;-70
2023/01/16 04:36:39;;;;;;;1.80;1.10;;;;;;;-141.84;70.76;19096.47;5051890;28;20210;-71
2023/01/16 04:39:09;;;;;;;2.17;0.90;;;;;;;-141.84;70.70;19110.72;5051265;28;20615;-71
2023/01/16 04:41:38;;;;;;;1.03;0.90;;;;;;;-141.84;70.16;19100.53;5051523;28;20245;-72
2023/01/16 04:44:08;;;;;;;2.20;1.00;;;;;;;-141.84;70.36;19116.81;5051181;28;20219;-71
2023/01/16 04:46:37;;;;;;;4.60;1.20;;;;;;;-141.84;70.26;19106.66;5051509;28;20225;-71
2023/01/16 04:49:07;;;;;;;3.17;1.30;;;;;;;-141.84;70.38;19114.78;5051215;28;20711;-71
2023/01/16 04:51:36;;;;;;;1.87;1.00;;;;;;;-141.84;69.86;19114.78;5051453;28;20207;-71
2023/01/16 04:54:06;;;;;;;3.00;1.13;;;;;;;-141.84;70.40;19124.94;5050754;28;20254;-72
2023/01/16 04:56:36;;;;;;;3.07;1.10;;;;;;;-141.84;70.42;19120.88;5051139;28;20678;-71
2023/01/16 04:59:05;;;;;;;2.33;1.03;;;;;;;-141.84;71.17;19106.66;5051191;28;20224;-71
2023/01/16 05:01:34;;;;;;;2.40;1.03;;;;;;;-141.84;71.01;19106.66;5051259;28;20673;-71
2023/01/16 05:04:03;;;;;;;2.60;1.10;;;;;;;-141.84;70.06;19149.31;5051018;28;20798;-70
2023/01/16 05:06:32;;;;;;;1.57;0.77;;;;;;;-141.84;69.57;19137.13;5051701;28;20207;-71
2023/01/16 05:09:01;;;;;;;3.83;1.00;;;;;;;-141.84;69.84;19122.91;5050760;28;20229;-70
2023/01/16 05:11:29;;;;;;;1.23;0.90;;;;;;;-141.84;70.63;19167.59;5051038;28;20232;-71
2023/01/16 05:13:59;;;;;;;1.87;1.10;;;;;;;-141.84;69.46;19126.97;5050928;28;20230;-71
2023/01/16 05:16:28;;;;;;;1.73;1.13;;;;;;;-141.84;69.53;19129.00;5050921;28;20235;-71
2023/01/16 05:18:57;;;;;;;3.50;1.10;;;;;;;-141.84;69.20;19139.16;5051332;28;20197;-71
2023/01/16 05:21:25;;;;;;;3.53;1.20;;;;;;;-141.84;69.83;19137.13;5049681;28;20223;-71
2023/01/16 05:23:54;;;;;;;1.87;1.10;;;;;;;-141.84;69.69;19159.47;5050801;28;20245;-71
2023/01/16 05:26:22;;;;;;;2.40;1.00;;;;;;;-141.84;69.15;19153.38;5050412;28;20679;-73
2023/01/16 05:28:51;;;;;;;1.90;0.90;;;;;;;-141.84;67.89;19157.44;5050467;28;20281;-71
2023/01/16 05:31:21;;;;;;;2.03;1.20;;;;;;;-141.84;68.12;19183.84;5050503;28;20207;-71
2023/01/16 05:33:50;;;;;;;2.10;1.00;;;;;;;-141.84;67.67;19163.53;5050846;28;20262;-72
2023/01/16 05:36:18;;;;;;;1.93;1.20;;;;;;;-141.84;68.01;19169.63;5050131;28;20239;-72
2023/01/16 05:38:47;;;;;;;2.93;0.97;;;;;;;-141.84;67.60;19126.97;5050319;28;20578;-71
2023/01/16 05:41:15;;;;;;;1.53;0.97;;;;;;;-141.84;67.98;19165.56;5050437;28;20694;-71
2023/01/16 05:43:44;;;;;;;2.73;1.00;;;;;;;-141.84;67.57;19153.38;5050370;28;20602;-70
2023/01/16 05:46:12;;;;;;;3.10;1.10;;;;;;;-141.84;67.39;19163.53;5050110;28;20545;-70
2023/01/16 05:48:42;;;;;;;5.77;1.50;;;;;;;-141.84;67.33;19185.88;5050697;28;20294;-70
2023/01/16 05:51:11;;;;;;;2.67;1.33;;;4.50;99.90;;;-141.84;67.92;19100.53;5049669;28;20224;-71
2023/01/16 05:53:39;;;;;;;2.63;1.20;;;4.50;99.90;;;-141.84;67.92;19135.09;5050395;28;20240;-71
2023/01/16 05:56:09;;;;;;;2.87;1.80;;;4.50;99.90;;;-141.84;67.69;19143.22;5050092;28;20518;-72
2023/01/16 05:58:38;;;;;;;2.77;1.20;;;4.50;99.90;;;-141.84;67.26;19139.16;5050203;28;20232;-71
2023/01/16 06:01:06;;;;;;;1.17;1.00;;;4.50;99.90;;;-141.84;67.87;19149.31;5049830;28;20203;-70
2023/01/16 06:03:35;;;;;;;1.97;1.20;;;4.40;99.90;;;-141.84;67.54;19173.69;5050638;28;20200;-70
2023/01/16 06:06:05;;;;;;;2.67;1.13;;;4.40;99.90;;;-141.84;67.68;19137.13;5049375;28;20357;-72
2023/01/16 06:08:33;;;;;;;2.03;1.23;;;4.40;99.90;;;-141.84;67.62;19151.34;5049894;28;20227;-71
2023/01/16 06:11:01;;;;;;;2.10;1.13;;;4.50;99.90;;;-141.84;67.93;19163.53;5049829;28;20222;-72
2023/01/16 06:13:29;;;;;;;2.50;0.90;;;4.40;99.90;;;-141.84;68.23;19147.28;5049826;28;20227;-71
2023/01/16 06:15:57;;;;;;;4.53;1.23;;;4.30;99.90;;;-141.84;67.50;19126.97;5050165;28;20206;-70
2023/01/16 06:18:25;;;;;;;2.97;1.00;;;4.30;99.90;;;-141.84;67.47;19143.22;5049715;28;20253;-70
2023/01/16 06:20:53;;;;;;;1.67;1.07;;;4.40;99.90;;;-141.84;67.46;19153.38;5049355;28;20231;-72
2023/01/16 06:23:23;;;;;;;2.23;0.90;;;4.30;99.90;;;-141.84;67.62;19124.94;5049129;28;20232;-71
2023/01/16 06:25:51;;;;;;;2.93;1.10;;;4.20;99.90;;;-141.84;68.05;19122.91;5049972;28;20230;-72
2023/01/16 06:28:19;;;;;;;2.60;1.00;;;4.30;99.90;;;-141.84;68.53;19118.84;5047194;28;20204;-72
2023/01/16 06:30:52;;;;;;;2.50;1.40;;;4.20;99.90;;;-141.84;67.87;19145.25;5030324;28;20446;-73
2023/01/16 06:33:21;;;;;;;1.83;1.00;;;4.20;99.90;;;-141.84;68.41;19137.13;5029694;28;20224;-71
2023/01/16 06:35:49;;;;;;;1.30;1.00;;;4.20;99.90;;;-141.84;67.84;19131.03;5040202;28;20225;-71
2023/01/16 06:38:18;;;;;;;4.37;1.50;;;4.20;99.90;;;-141.84;68.41;19102.56;5049227;28;20233;-73
2023/01/16 06:40:47;;;;;;;3.23;1.20;;;4.10;99.90;;;-141.84;68.31;19139.16;5049996;28;20250;-71
2023/01/16 06:43:17;;;;;;;2.53;1.10;;;4.10;99.90;;;-141.84;67.87;19145.25;5050186;28;20205;-73
2023/01/16 06:45:45;;;;;;;1.47;0.90;;;4.20;99.90;;;-141.84;67.45;19145.25;5050938;28;20278;-72
2023/01/16 06:48:13;;;;;;;2.53;1.00;;;4.20;99.90;;;-141.84;66.94;19155.41;5050070;28;20240;-71
2023/01/16 06:50:42;;;;;;;3.47;1.10;;;4.30;99.90;;;-141.84;67.08;19173.69;5049911;28;20602;-71
2023/01/16 06:53:10;;;;;;;1.47;0.80;;;4.30;99.90;;;-141.84;67.02;19147.28;5050116;28;20221;-72
2023/01/16 06:55:39;;;;;;;2.10;0.80;;;4.30;99.90;;;-141.84;67.16;19163.53;5049763;28;20235;-72
2023/01/16 06:58:10;;;;;;;4.03;1.10;;;4.40;99.90;;;-141.84;67.55;19137.13;5051499;28;20201;-69
2023/01/16 07:00:38;;;;;;;2.63;1.00;;;4.40;99.90;;;-141.84;66.87;19175.72;5053167;28;20198;-71
2023/01/16 07:03:06;;;;;;;2.60;1.50;;;4.40;99.90;;;-141.84;66.93;19167.59;5052274;28;20283;-70
2023/01/16 07:05:34;;;;;;;2.40;1.20;;;4.50;99.90;;;-141.84;66.42;19151.34;5051617;28;20241;-70
2023/01/16 07:08:03;;;;;;;2.20;1.10;;;4.40;99.90;;;-141.84;67.33;19143.22;5050865;28;20224;-69
2023/01/16 07:10:31;;;;;;;1.47;1.10;;;4.30;99.90;;;-141.84;67.94;19118.84;5050498;28;20231;-70
2023/01/16 07:12:59;;;;;;;3.43;1.20;;;4.20;99.90;;;-141.84;67.89;19151.34;5051181;28;20204;-70
2023/01/16 07:23:58;;;;;;;2.00;1.00;;;4.00;99.90;;;-141.84;69.05;19094.44;5030191;28;20239;-70
2023/01/16 07:26:28;;;;;;;1.63;1.00;;;3.90;99.90;;;-141.84;69.01;19100.53;5030108;28;20711;-69
2023/01/16 07:28:58;;;;;;;3.17;1.17;;;3.80;99.90;;;-141.84;68.23;19106.66;5030223;28;20261;-70
2023/01/16 07:31:27;;;;;;;1.63;1.00;;;3.90;99.90;;;-141.84;68.08;19114.78;5029969;28;20259;-69
2023/01/16 07:33:56;;;;;;;1.97;1.00;;;3.90;99.90;;;-141.84;68.62;19098.50;5030986;28;20202;-70
2023/01/16 07:36:24;;;;;;;1.83;1.20;;;3.90;99.90;;;-141.84;68.57;19094.44;5029860;28;20222;-70
2023/01/16 07:38:52;;;;;;;3.27;1.27;;;3.90;99.90;;;-141.84;69.01;19114.78;5029958;28;20249;-72
2023/01/16 07:41:20;;;;;;;4.07;1.20;;;3.90;99.90;;;-141.84;68.15;19153.38;5029467;28;20243;-69
2023/01/16 07:43:48;;;;;;;1.43;1.10;;;3.90;99.90;;;-141.84;68.78;19124.94;5037876;28;20234;-71
2023/01/16 07:46:16;;;;;;;2.37;1.30;;;3.90;99.90;;;-141.84;68.73;19102.56;5053863;28;20225;-70
2023/01/16 07:48:46;;;;;;;2.63;1.40;;;3.90;99.90;;;-141.84;67.97;19108.69;5054454;28;20215;-70
2023/01/16 07:51:14;;;;;;;2.27;1.10;;;4.00;99.90;;;-141.84;68.39;19094.44;5053450;28;20614;-71
2023/01/16 07:53:42;;;;;;;2.03;1.40;;;4.00;99.90;;;-141.84;68.71;19122.91;5053096;28;20231;-72
2023/01/16 07:56:10;;;;;;;4.07;1.70;;;4.00;99.90;;;-141.84;68.24;19139.16;5053080;28;20227;-73
2023/01/16 07:58:41;;;;;;;2.53;1.10;;;3.80;99.90;;;-141.84;68.31;19149.31;5053083;28;20222;-70
2023/01/16 08:01:10;;;;;;;2.77;1.30;;;4.00;99.90;;;-141.84;67.42;19143.22;5053296;28;20199;-70
2023/01/16 08:03:39;;;;;;;2.37;1.13;;;4.10;99.90;;;-141.84;67.26;19114.78;5053135;28;20663;-69
2023/01/16 08:06:09;;;;;;;1.83;1.17;;;4.10;99.90;;;-141.84;66.86;19143.22;5052590;28;20234;-69
2023/01/16 08:08:37;;;;;;;1.87;1.10;;;4.20;99.90;;;-141.84;66.56;19202.16;5052382;28;20245;-69
2023/01/16 08:11:35;;;;;;;1.97;1.10;;;4.30;99.90;;;-141.84;66.04;19141.19;5051791;28;20606;-70
2023/01/16 08:13:54;;;;;;;1.77;1.10;;;4.30;99.90;;;-141.84;65.90;19169.63;5052579;28;20644;-70
2023/01/16 08:16:22;;;;;;;1.50;1.00;;;4.40;99.90;;;-141.84;65.53;19159.47;5052457;28;20238;-69
2023/01/16 08:18:50;;;;;;;2.33;1.20;;;4.40;99.90;;;-141.84;65.92;19155.41;5052747;28;20204;-69
2023/01/16 08:21:19;;;;;;;2.73;1.63;;;4.40;99.90;;;-141.84;65.52;19112.75;5052614;28;20231;-69
2023/01/16 08:23:48;;;;;;;1.63;1.13;;;4.40;99.90;;;-141.84;65.62;19179.78;5052106;28;20228;-70
2023/01/16 08:26:16;;;;;;;1.63;1.23;;;4.50;99.90;;;-141.84;65.96;19208.25;5052299;28;20221;-70
2023/01/16 08:28:44;;;;;;;2.57;1.40;;;4.40;99.90;;;-141.84;65.67;19165.56;5052480;28;20259;-72
2023/01/16 08:31:15;;;;;;;2.57;1.00;;;4.50;99.90;;;-141.84;64.53;19153.38;5052464;28;20228;-71
2023/01/16 08:33:46;;;;;;;2.20;1.30;;;4.60;99.90;;;-141.84;64.28;19210.28;5053061;28;20238;-69
2023/01/16 08:36:16;;;;;;;2.53;1.13;;;4.60;99.90;;;-141.84;64.69;19139.16;5052164;28;20275;-70
2023/01/16 08:38:45;;;;;;;1.77;1.03;;;4.70;99.90;;;-141.84;63.96;19196.06;5051903;28;20231;-68
2023/01/16 08:52:15;;;;;;;5.00;1.37;;;5.00;99.90;;;-141.84;62.81;19232.63;5052072;28;20192;-72
2023/01/16 08:54:46;;;;;;;2.13;1.23;;;5.00;99.90;;;-141.84;62.23;19214.34;5052283;28;20320;-69
2023/01/16 08:57:14;;;;;;;1.63;1.00;;;5.20;99.90;;;-141.84;61.73;19271.25;5052335;28;20628;-69
2023/01/16 08:59:42;;;;;;;2.37;1.20;;;5.40;99.90;;;-141.84;60.07;19297.66;5052425;28;20228;-69
2023/01/16 09:02:14;;;;;;;2.20;1.30;;;5.70;99.90;;;-141.84;59.29;19330.16;5052505;28;20252;-71
2023/01/16 09:04:44;;;;;;;2.50;1.10;;;5.80;99.90;;;-141.84;59.17;19291.56;5051547;28;20228;-70
2023/01/16 09:07:12;;;;;;;2.80;1.30;;;5.90;99.90;;;-141.84;59.50;19307.81;5042191;28;20205;-69
2023/01/16 09:09:41;;;;;;;2.47;1.40;;;5.90;99.90;;;-141.84;59.01;19311.88;5052518;28;20201;-71
2023/01/16 09:14:59;;;;;;;1.40;0.90;;;5.90;99.90;;;-141.84;59.68;19289.53;5051846;28;20220;-70
2023/01/16 09:17:28;;;;;;;3.90;1.23;;;5.90;99.90;;;-141.84;59.68;19311.88;5053216;28;20225;-70
2023/01/16 09:19:57;;;;;;;3.63;1.50;;;5.90;99.90;;;-141.84;59.42;19285.47;5053803;28;20224;-70
2023/01/16 09:22:28;;;;;;;1.50;1.10;;;5.90;99.90;;;-141.84;59.81;19309.84;5054493;28;20231;-70
2023/01/16 09:24:56;;;;;;;2.50;1.33;;;5.90;99.90;;;-141.84;59.55;19297.66;5055438;28;20189;-70
2023/01/16 09:27:25;;;;;;;1.70;1.10;;;6.00;99.90;;;-141.84;59.34;19285.47;5055514;28;20236;-68
2023/01/16 09:29:54;;;;;;;2.23;1.30;;;6.00;99.90;;;-141.84;59.24;19297.66;5055125;28;20225;-68
2023/01/16 09:32:22;;;;;;;4.03;1.13;;;6.00;99.90;;;-141.84;59.01;19301.72;5054606;28;20596;-70
2023/01/16 09:34:50;;;;;;;1.93;1.23;;;6.10;99.90;;;-141.84;59.08;19293.59;5051947;28;20256;-69
2023/01/16 09:37:18;;;;;;;3.23;0.90;;;6.20;99.90;;;-141.84;58.60;19344.41;5052221;28;20209;-69
2023/01/16 09:39:46;;;;;;;3.03;1.20;;;6.20;99.90;;;-141.84;58.69;19313.91;5052488;28;20202;-70
2023/01/16 09:45:29;;;;;;;1.50;1.20;;;6.20;99.90;;;-141.84;58.23;19338.28;5050926;28;20232;-70
2023/01/16 09:48:04;;;;;;;3.87;1.20;;;6.20;99.90;;;-141.84;58.25;19360.66;5051336;28;20227;-70
2023/01/16 09:50:39;;;;;;;2.37;1.00;;;6.30;99.90;;;-141.84;58.16;19360.66;5050519;28;20313;-69
2023/01/16 09:59:07;;;;;;;2.80;1.20;;;6.40;99.90;;;-141.84;57.82;19352.53;5051390;28;20233;-70
2023/01/16 10:01:44;;;;;;;2.77;1.20;;;6.50;99.90;;;-141.84;58.11;19344.41;5051454;28;20585;-72
2023/01/16 10:04:20;;;;;;;1.53;1.00;;;6.50;99.90;;;-141.84;58.09;19330.16;5051225;28;20185;-69
2023/01/16 10:07:09;;;;;;;2.33;1.23;;;6.60;99.90;;;-141.84;57.51;19358.63;5051401;28;20737;-69
2023/01/16 10:09:51;;;;;;;2.03;1.20;;;6.50;99.90;;;-141.84;57.17;19378.94;5051440;28;20216;-69
2023/01/16 10:12:22;;;;;;;3.80;1.20;;;6.80;99.90;;;-141.84;57.28;19389.09;5050987;28;20233;-69
2023/01/16 10:15:12;;;;;;;2.20;1.33;;;6.80;99.90;;;-141.84;57.28;19407.38;5051006;28;20720;-69
2023/01/16 10:17:56;;;;;;;2.27;1.30;;;6.80;99.90;;;-141.84;56.64;19415.50;5050919;28;20697;-70
2023/01/16 10:20:43;;;;;;;2.00;1.10;;;6.90;99.90;;;-141.84;56.81;19403.31;5050225;28;20724;-71
2023/01/16 10:23:39;;;;;;;2.23;1.37;;;6.90;99.90;;;-141.84;56.91;19415.50;5050948;28;20224;-70
2023/01/16 10:26:18;;;;;;;2.00;1.10;;;6.90;99.90;;;-141.84;56.55;19421.63;5050798;28;20225;-69
2023/01/16 10:29:00;;;;;;;1.80;1.23;;;7.10;99.90;;;-141.84;55.99;19435.84;5051074;28;20233;-67
2023/01/16 10:31:38;;;;;;;2.57;1.40;;;7.10;99.90;;;-141.84;56.04;19409.41;5051052;28;20294;-69
2023/01/16 10:34:15;;;;;;;3.33;1.20;;;7.20;99.90;;;-141.84;56.31;19429.75;5050965;28;20181;-70
2023/01/16 10:36:48;;;;;;;2.40;1.20;;;7.20;99.90;;;-141.84;56.04;19464.28;5050863;28;20204;-71
2023/01/16 10:39:20;;;;;;;3.17;1.27;;;7.20;99.90;;;-141.84;56.22;19456.16;5050448;28;20259;-70
2023/01/16 10:50:21;;;;;;;2.93;1.10;;;7.20;99.90;;;-141.84;55.87;19429.75;5050295;28;20291;-60
2023/01/16 10:53:04;;;;;;;2.17;1.63;;;7.20;99.90;;;-141.84;56.19;19429.75;5050319;28;20229;-61
2023/01/16 10:55:36;;;;;;;2.20;1.10;;;7.30;99.90;;;-141.84;55.67;19476.47;5050006;28;20240;-60
2023/01/16 10:58:22;;;;;;;3.67;1.30;;;7.30;99.90;;;-141.84;55.38;19474.44;5050585;28;20186;-59
2023/01/16 11:00:51;;;;;;;2.27;1.23;;;7.30;99.90;;;-141.84;55.50;19439.91;5050678;28;20182;-60
2023/01/16 11:03:32;;;;;;;2.10;1.33;;;7.40;99.90;;;-141.84;54.52;19484.59;5050029;28;20256;-60
2023/01/16 11:06:13;;;;;;;3.87;1.60;;;7.50;99.90;;;-141.84;54.21;19490.72;5049566;28;20731;-60
2023/01/16 11:08:44;;;;;;;1.43;1.20;;;7.60;99.90;;;-141.84;54.32;19500.88;5049980;28;20228;-60
2023/01/16 11:20:15;;;;;;;1.17;0.97;;;7.90;99.90;;;-141.84;53.31;19488.69;5053629;28;20316;-60
2023/01/16 11:22:51;;;;;;;3.23;0.90;;;7.90;99.90;;;-141.84;53.13;19578.09;5053701;28;20240;-60
2023/01/16 11:25:20;;;;;;;4.00;1.13;;;8.10;99.90;;;-141.84;52.87;19523.22;5054313;28;20177;-62
2023/01/16 11:27:52;;;;;;;3.37;1.43;;;7.90;99.90;;;-141.84;52.62;19519.16;5054949;28;20201;-60
2023/01/16 11:30:29;;;;;;;1.60;0.97;;;7.90;99.90;;;-141.84;52.97;19500.88;5054027;28;20217;-61
2023/01/16 11:32:58;;;;;;;2.30;1.10;;;7.80;99.90;;;-141.84;53.51;19498.84;5054146;28;20236;-61
2023/01/16 11:35:37;;;;;;;2.53;1.17;;;7.80;99.90;;;-141.84;52.38;19527.28;5053665;28;20221;-60
2023/01/16 11:38:07;;;;;;;1.83;1.03;;;7.90;99.90;;;-141.84;51.89;19557.78;5054192;28;20236;-60
2023/01/16 11:40:44;;;;;;;1.83;1.00;;;7.90;99.90;;;-141.84;52.17;19515.09;5054139;28;20229;-63